Time;durP1;ratioP1;P1;durP2;ratioP2;P2;SDS_P1;SDS_P2;PMS_P1;PMS_P2;Temp;Humidity;BMP_temperature;BMP_pressure;BME280_temperature;BME280_humidity;BME280_pressure;Samples;Min_cycle;Max_cycle;Signal;HPM_P1;HPM_P2
2022/11/09 00:06:22;;;;;;;;;4.00;3.00;;;;;15.87;65.98;100042.97;5054259;28;45643;-77
2022/11/09 00:08:47;;;;;;;;;4.25;3.75;;;;;15.91;65.85;100046.13;4995580;28;48195;-76
2022/11/09 00:11:14;;;;;;;;;4.50;2.50;;;;;15.87;66.04;100048.25;5012676;28;45686;-78
2022/11/09 00:13:41;;;;;;;;;3.00;2.00;;;;;15.90;66.20;100061.16;5012999;28;45745;-78
2022/11/09 00:16:09;;;;;;;;;3.00;3.00;;;;;15.93;66.23;100081.13;5011717;28;47533;-77
2022/11/09 00:19:01;;;;;;;;;3.75;2.75;;;;;15.87;66.57;100072.03;5012682;28;46386;-78
2022/11/09 00:22:04;;;;;;;;;4.50;2.75;;;;;15.66;67.04;100039.03;4957379;28;45754;-78
2022/11/09 00:24:57;;;;;;;;;4.00;3.00;;;;;15.63;67.52;100034.91;4895786;29;45607;-77
2022/11/09 00:27:25;;;;;;;;;2.50;2.00;;;;;15.40;67.71;100000.22;4895416;29;46693;-78
2022/11/09 00:29:50;;;;;;;;;2.00;2.00;;;;;15.69;68.04;100041.38;4895660;29;46125;-77
2022/11/09 00:32:15;;;;;;;;;3.75;2.25;;;;;15.59;67.86;99996.59;4895371;29;45706;-78
2022/11/09 00:34:44;;;;;;;;;4.50;2.50;;;;;15.72;68.27;100004.06;4895460;29;45558;-78
2022/11/09 00:37:09;;;;;;;;;2.75;2.00;;;;;15.70;68.29;100008.72;4895334;29;46521;-77
2022/11/09 00:39:34;;;;;;;;;2.25;1.50;;;;;15.71;68.04;100013.00;4896177;29;48684;-77
2022/11/09 00:42:00;;;;;;;;;2.25;1.25;;;;;15.64;68.32;100004.06;4895733;29;45624;-77
2022/11/09 00:44:25;;;;;;;;;2.00;2.00;;;;;15.69;68.43;100023.72;4896828;29;45838;-78
2022/11/09 00:46:50;;;;;;;;;1.00;1.00;;;;;15.68;68.32;100021.22;4895688;29;45734;-78
2022/11/09 00:49:15;;;;;;;;;2.25;1.50;;;;;15.68;68.45;100010.66;4895193;29;46558;-77
2022/11/09 00:51:42;;;;;;;;;3.00;2.25;;;;;15.67;68.15;100012.47;4895200;29;45798;-78
2022/11/09 00:54:08;;;;;;;;;3.25;3.00;;;;;15.67;68.28;100015.13;4895239;29;45985;-77
2022/11/09 00:56:34;;;;;;;;;2.00;2.00;;;;;15.61;68.62;100010.47;4893830;29;46761;-77
2022/11/09 00:59:01;;;;;;;;;2.75;2.50;;;;;15.66;68.13;100016.09;4951375;28;46318;-76
2022/11/09 01:01:26;;;;;;;;;4.25;2.00;;;;;15.67;68.53;100019.56;5003034;28;45692;-77
2022/11/09 01:03:52;;;;;;;;;4.50;3.00;;;;;15.66;68.41;100021.38;5034350;28;45500;-78
2022/11/09 01:06:21;;;;;;;;;3.00;2.00;;;;;15.63;68.45;100026.16;5015576;28;46538;-78
2022/11/09 01:12:28;;;;;;;;;4.50;2.00;;;;;15.60;68.23;100039.69;4991291;28;45745;-78
2022/11/09 01:14:53;;;;;;;;;2.00;2.00;;;;;15.09;68.25;99965.53;4952318;28;45640;-78
2022/11/09 01:17:48;;;;;;;;;2.00;1.75;;;;;15.29;68.31;100003.13;4952363;28;46485;-78
2022/11/09 01:23:57;;;;;;;;;2.75;2.00;;;;;15.17;68.35;99999.06;4820057;29;45963;-78
2022/11/09 01:26:26;;;;;;;;;1.50;1.00;;;;;15.35;68.33;100026.25;4820892;29;46117;-77
2022/11/09 01:32:39;;;;;;;;;2.00;1.75;;;;;15.40;68.54;100058.31;4757840;29;46103;-78
2022/11/09 01:35:37;;;;;;;;;2.00;1.25;;;;;15.37;68.41;100068.34;4747728;29;45737;-78
2022/11/09 01:38:04;;;;;;;;;2.75;2.25;;;;;15.15;68.32;100042.44;4695747;30;45736;-77
2022/11/09 01:51:05;;;;;;;;;0.25;0.00;;;;;15.09;68.69;100071.09;4695815;30;45709;-77
2022/11/09 01:53:46;;;;;;;;;0.75;0.75;;;;;15.06;68.53;100070.56;4712029;30;46522;-77
2022/11/09 01:57:08;;;;;;;;;;;;;;;;;;;;;
2022/11/09 02:07:34;;;;;;;;;2.00;1.25;;;;;14.73;68.56;100050.94;4859414;28;46038;-78
2022/11/09 02:10:22;;;;;;;;;1.00;1.00;;;;;15.02;68.92;100096.41;4841172;29;46174;-77
2022/11/09 02:22:52;;;;;;;;;3.00;2.00;;;;;14.83;68.57;100093.91;4786136;29;46045;-77
2022/11/09 02:25:18;;;;;;;;;4.25;3.00;;;;;14.86;68.82;100092.75;4786065;29;45710;-78
2022/11/09 02:27:44;;;;;;;;;3.00;3.00;;;;;14.81;68.78;100080.03;4786142;29;45665;-77
2022/11/09 02:30:11;;;;;;;;;3.25;2.00;;;;;14.85;68.65;100094.56;4786095;29;46549;-78
2022/11/09 02:39:33;;;;;;;;;2.00;1.75;;;;;14.76;68.44;100094.63;4771965;29;45706;-77
2022/11/09 02:42:03;;;;;;;;;1.00;1.00;;;;;14.73;68.37;100100.22;4822620;29;48676;-77
2022/11/09 02:44:33;;;;;;;;;1.75;1.00;;;;;14.71;68.68;100089.81;4822320;29;45537;-78
2022/11/09 02:53:37;;;;;;;;;0.00;0.00;;;;;14.08;68.08;100020.34;4825384;29;46099;-78
2022/11/09 02:56:02;;;;;;;;;2.00;1.00;;;;;14.60;68.58;100113.75;4876184;28;46293;-77
2022/11/09 02:58:28;;;;;;;;;1.00;0.25;;;;;14.52;68.47;100101.28;4974101;28;45821;-77
2022/11/09 03:00:53;;;;;;;;;1.00;0.00;;;;;14.52;67.95;100106.56;4974510;28;45839;-78
2022/11/09 03:06:40;;;;;;;;;0.00;0.00;;;;;14.44;68.10;100117.00;4973761;28;45888;-78
2022/11/09 03:09:10;;;;;;;;;0.00;0.00;;;;;14.34;67.93;100103.03;4973742;28;45657;-78
2022/11/09 03:11:36;;;;;;;;;0.00;0.00;;;;;14.44;68.17;100126.72;4974091;28;45648;-77
2022/11/09 03:14:02;;;;;;;;;1.50;0.75;;;;;14.41;68.41;100127.03;4973971;28;46688;-77
2022/11/09 03:16:28;;;;;;;;;0.00;0.00;;;;;14.37;67.67;100136.19;4957301;28;47167;-78
2022/11/09 03:22:15;;;;;;;;;1.00;1.00;;;;;14.25;68.16;100124.97;5034978;28;45694;-77
2022/11/09 03:24:40;;;;;;;;;0.00;0.00;;;;;14.17;68.19;100120.41;5035196;28;46369;-78
2022/11/09 03:27:06;;;;;;;;;0.00;0.00;;;;;14.12;68.19;100114.75;5034825;28;46459;-77
2022/11/09 03:29:32;;;;;;;;;0.00;0.00;;;;;14.17;68.06;100123.06;5034863;28;46010;-78
2022/11/09 03:31:57;;;;;;;;;0.00;0.00;;;;;14.08;68.26;100112.56;5034966;28;45626;-77
2022/11/09 03:37:44;;;;;;;;;0.00;0.00;;;;;14.10;67.97;100140.41;5042636;28;45893;-76
2022/11/09 03:40:10;;;;;;;;;1.00;0.00;;;;;14.00;68.05;100118.53;5055241;28;45628;-76
2022/11/09 03:42:35;;;;;;;;;0.00;0.00;;;;;14.01;68.34;100133.38;5054863;28;45549;-78
2022/11/09 03:45:02;;;;;;;;;0.75;0.00;;;;;14.00;68.48;100125.59;5054896;28;47265;-77
2022/11/09 03:47:28;;;;;;;;;0.00;0.00;;;;;14.04;68.61;100145.41;5055004;28;46307;-76
2022/11/09 03:53:14;;;;;;;;;0.00;0.00;;;;;13.96;68.26;100132.97;5055029;28;45675;-78
2022/11/09 03:55:40;;;;;;;;;1.00;0.00;;;;;14.02;68.43;100147.38;5054871;28;46588;-76
2022/11/09 03:58:08;;;;;;;;;0.00;0.00;;;;;13.99;68.25;100139.72;5055178;28;45710;-78
2022/11/09 04:00:34;;;;;;;;;0.00;0.00;;;;;13.96;68.40;100137.41;5055691;28;45765;-76
2022/11/09 04:03:00;;;;;;;;;0.00;0.00;;;;;14.00;68.56;100149.31;5055135;28;45944;-75
2022/11/09 04:08:47;;;;;;;;;0.00;0.00;;;;;13.98;68.37;100156.53;5054794;28;45656;-77
2022/11/09 04:11:13;;;;;;;;;0.00;0.00;;;;;13.96;68.54;100154.03;5054981;28;45658;-78
2022/11/09 04:13:38;;;;;;;;;0.00;0.00;;;;;13.94;68.60;100163.03;5055087;28;45517;-78
2022/11/09 04:16:04;;;;;;;;;0.00;0.00;;;;;13.93;68.22;100156.94;5054683;28;45509;-76
2022/11/09 04:18:29;;;;;;;;;0.00;0.00;;;;;13.92;68.32;100154.47;5054604;28;46145;-76
2022/11/09 04:24:16;;;;;;;;;0.00;0.00;;;;;13.89;68.56;100163.47;5054310;28;45750;-77
2022/11/09 04:26:41;;;;;;;;;0.00;0.00;;;;;13.81;68.47;100151.00;5054880;28;45585;-78
2022/11/09 04:29:07;;;;;;;;;0.00;0.00;;;;;13.86;68.22;100163.75;5054854;28;46375;-77
2022/11/09 04:31:32;;;;;;;;;0.00;0.00;;;;;13.84;68.82;100169.16;5054420;28;45749;-77
2022/11/09 04:33:58;;;;;;;;;0.00;0.00;;;;;13.83;68.56;100177.19;5054699;28;45727;-77
2022/11/09 04:36:23;;;;;;;;;0.00;0.00;;;;;13.82;69.04;100180.78;5054343;28;46508;-78
2022/11/09 04:38:49;;;;;;;;;0.00;0.00;;;;;13.81;68.81;100187.88;5054042;28;45888;-77
2022/11/09 04:41:14;;;;;;;;;0.00;0.00;;;;;13.77;68.80;100189.09;5054848;28;45882;-77
2022/11/09 04:43:40;;;;;;;;;0.00;0.00;;;;;13.76;68.92;100190.09;5053938;28;45892;-77
2022/11/09 04:46:05;;;;;;;;;0.25;0.00;;;;;13.71;68.72;100191.50;5054299;28;46339;-77
2022/11/09 04:48:31;;;;;;;;;2.00;1.00;;;;;13.69;68.88;100185.53;5035794;28;46991;-77
2022/11/09 04:54:18;;;;;;;;;0.00;0.00;;;;;13.66;69.19;100201.56;5054143;28;45714;-77
2022/11/09 04:56:44;;;;;;;;;0.00;0.00;;;;;13.64;68.85;100196.47;5053924;28;47645;-78
2022/11/09 04:59:09;;;;;;;;;0.00;0.00;;;;;13.62;68.73;100198.41;5054040;28;45580;-77
2022/11/09 05:01:34;;;;;;;;;1.00;0.00;;;;;13.62;69.25;100197.56;5035465;28;45555;-77
2022/11/09 05:04:00;;;;;;;;;0.00;0.00;;;;;13.58;69.22;100185.66;5053563;28;45527;-79
2022/11/09 05:09:47;;;;;;;;;0.00;0.00;;;;;13.58;68.93;100198.81;5053633;28;45700;-77
2022/11/09 05:12:12;;;;;;;;;1.25;0.75;;;;;13.54;68.99;100190.38;5054069;28;45747;-77
2022/11/09 05:14:37;;;;;;;;;0.75;0.50;;;;;13.60;69.02;100199.53;5053732;28;45526;-78
2022/11/09 05:17:03;;;;;;;;;0.75;0.00;;;;;13.60;69.19;100202.16;5053912;28;45682;-78
2022/11/09 05:19:28;;;;;;;;;0.00;0.00;;;;;13.57;69.42;100194.53;5053873;28;45616;-78
2022/11/09 05:21:53;;;;;;;;;0.00;0.00;;;;;13.60;68.98;100200.34;5053551;28;45637;-77
2022/11/09 05:24:19;;;;;;;;;2.00;1.00;;;;;13.57;69.37;100200.63;5053740;28;45525;-78
2022/11/09 05:26:44;;;;;;;;;1.25;0.00;;;;;13.63;68.92;100201.88;5054022;28;45425;-80
2022/11/09 05:29:11;;;;;;;;;0.25;0.00;;;;;13.61;69.24;100195.91;5054282;28;45708;-77
2022/11/09 05:31:38;;;;;;;;;0.00;0.00;;;;;13.62;69.14;100193.13;5054631;28;45723;-78
2022/11/09 05:34:05;;;;;;;;;0.50;0.00;;;;;13.62;69.09;100198.41;5054720;28;45652;-77
2022/11/09 05:39:52;;;;;;;;;0.00;0.00;;;;;13.61;69.43;100203.78;5054202;28;45914;-77
2022/11/09 05:42:17;;;;;;;;;0.00;0.00;;;;;13.65;69.67;100205.22;5056901;28;45487;-77
2022/11/09 05:44:42;;;;;;;;;0.00;0.00;;;;;13.62;69.27;100203.66;5057681;28;45650;-79
2022/11/09 05:47:08;;;;;;;;;2.00;0.00;;;;;13.56;69.27;100196.31;5039805;28;46896;-76
2022/11/09 05:49:33;;;;;;;;;0.75;0.00;;;;;13.66;69.64;100207.69;5058819;28;45743;-79
2022/11/09 05:55:20;;;;;;;;;2.00;0.50;;;;;13.67;69.39;100211.97;5056947;28;45510;-78
2022/11/09 05:57:46;;;;;;;;;1.50;0.00;;;;;13.68;69.32;100216.28;5056741;28;45508;-78
2022/11/09 06:00:12;;;;;;;;;1.25;0.75;;;;;13.69;69.84;100231.13;5056976;28;46558;-78
2022/11/09 06:02:37;;;;;;;;;1.00;1.00;;;;;13.70;69.87;100224.88;5056933;28;45521;-78
2022/11/09 06:05:02;;;;;;;;;0.50;0.50;;;;;13.70;70.05;100227.50;5056889;28;45439;-76
2022/11/09 06:10:49;;;;;;;;;2.00;1.00;;;;;13.70;69.48;100222.25;5056598;28;45846;-77
2022/11/09 06:13:15;;;;;;;;;0.50;0.00;;;;;13.71;69.94;100223.09;5038130;28;45634;-79
2022/11/09 06:15:41;;;;;;;;;0.25;0.00;;;;;13.71;70.09;100220.44;5056743;28;45783;-79
2022/11/09 06:18:06;;;;;;;;;1.00;1.00;;;;;13.71;70.18;100217.81;5056355;28;45582;-78
2022/11/09 06:20:32;;;;;;;;;2.00;1.00;;;;;13.72;70.22;100224.72;5056632;28;45605;-78
2022/11/09 06:23:00;;;;;;;;;1.50;1.50;;;;;13.62;70.06;100214.19;5055936;28;45639;-77
2022/11/09 06:25:26;;;;;;;;;3.00;1.00;;;;;13.74;69.97;100228.06;5056243;28;45701;-78
2022/11/09 06:27:54;;;;;;;;;1.00;1.00;;;;;13.69;69.97;100225.84;5056599;28;46312;-77
2022/11/09 06:30:19;;;;;;;;;1.50;1.00;;;;;13.69;70.19;100233.75;5056572;28;46979;-78
2022/11/09 06:32:45;;;;;;;;;1.00;0.00;;;;;13.68;70.07;100236.50;5056561;28;45638;-77
2022/11/09 06:35:10;;;;;;;;;2.00;2.00;;;;;13.70;70.63;100245.94;5056383;28;45662;-76
2022/11/09 06:40:59;;;;;;;;;1.00;1.00;;;;;13.70;70.18;100253.00;5055416;28;45878;-78
2022/11/09 06:43:25;;;;;;;;;1.00;1.00;;;;;13.70;70.35;100258.28;5057802;28;45483;-77
2022/11/09 06:45:52;;;;;;;;;3.00;2.00;;;;;13.70;70.40;100259.09;5058552;28;45443;-77
2022/11/09 06:48:17;;;;;;;;;2.00;1.50;;;;;13.69;70.30;100254.81;5056471;28;45547;-78
2022/11/09 06:50:43;;;;;;;;;3.75;2.00;;;;;13.72;70.83;100267.69;5055554;28;45513;-78
2022/11/09 06:53:19;;;;;;;;;2.75;2.75;;;;;13.71;70.38;100266.00;5055854;28;45766;-79
2022/11/09 06:55:44;;;;;;;;;3.25;2.25;;;;;13.69;70.45;100273.22;5056054;28;45581;-79
2022/11/09 07:04:57;;;;;;;;;0.25;0.25;;;;;13.20;70.91;100196.97;4934887;28;45672;-78
2022/11/09 07:07:48;;;;;;;;;3.00;2.25;;;;;13.70;71.16;100277.53;4915861;28;46037;-78
2022/11/09 07:10:30;;;;;;;;;4.25;1.25;;;;;13.42;71.26;100234.41;4915833;28;47634;-76
2022/11/09 07:12:58;;;;;;;;;1.75;1.00;;;;;13.38;70.94;100233.03;4915898;28;46042;-76
2022/11/09 07:16:10;;;;;;;;;1.25;1.00;;;;;13.66;71.20;100284.03;4915683;28;45611;-78
2022/11/09 07:18:36;;;;;;;;;2.00;1.00;;;;;13.78;71.51;100297.91;4859315;29;46059;-78
2022/11/09 07:24:06;;;;;;;;;3.25;2.00;;;;;13.82;71.25;100307.19;4858771;29;45787;-77
2022/11/09 07:26:31;;;;;;;;;1.75;1.00;;;;;13.77;71.31;100298.84;4843451;29;45565;-75
2022/11/09 07:28:56;;;;;;;;;1.75;1.75;;;;;13.85;71.42;100314.81;4858710;29;45723;-76
2022/11/09 07:31:22;;;;;;;;;7.00;4.00;;;;;13.87;71.55;100316.34;4858828;29;45615;-78
2022/11/09 07:33:49;;;;;;;;;4.50;2.75;;;;;13.89;71.83;100321.47;4858634;29;47008;-79
2022/11/09 07:36:15;;;;;;;;;3.00;2.00;;;;;13.88;71.45;100319.81;4858847;29;45849;-76
2022/11/09 07:38:41;;;;;;;;;4.75;3.75;;;;;13.89;71.25;100318.84;4859064;29;45551;-78
2022/11/09 07:41:07;;;;;;;;;3.00;2.50;;;;;13.85;71.75;100312.19;4899520;28;46468;-78
2022/11/09 07:43:32;;;;;;;;;3.00;2.25;;;;;13.91;71.68;100313.44;4953826;28;47377;-76
2022/11/09 07:45:57;;;;;;;;;3.50;3.00;;;;;13.93;71.39;100317.59;4953738;28;45553;-76
2022/11/09 07:48:23;;;;;;;;;4.75;4.00;;;;;13.95;71.75;100314.81;4969067;28;45763;-75
2022/11/09 07:50:49;;;;;;;;;12.25;11.00;;;;;13.94;71.74;100311.34;5055043;28;46496;-76
2022/11/09 07:53:15;;;;;;;;;2.50;2.00;;;;;13.98;71.54;100315.38;5055048;28;46022;-77
2022/11/09 07:55:41;;;;;;;;;7.00;4.00;;;;;13.99;71.74;100322.31;5055022;28;45726;-78
2022/11/09 07:58:10;;;;;;;;;8.00;1.75;;;;;14.04;71.26;100324.53;5054976;28;45629;-79
2022/11/09 08:00:39;;;;;;;;;5.00;3.00;;;;;14.06;71.78;100336.59;5054327;28;47756;-76
2022/11/09 08:03:05;;;;;;;;;3.50;3.00;;;;;14.08;71.71;100333.84;5054137;28;46424;-76
2022/11/09 08:05:31;;;;;;;;;3.00;2.00;;;;;14.11;71.69;100341.44;5054548;28;45661;-79
2022/11/09 08:07:59;;;;;;;;;5.00;1.50;;;;;14.08;71.20;100345.22;5054749;28;45645;-79
2022/11/09 08:10:26;;;;;;;;;1.50;1.00;;;;;14.17;71.55;100351.44;5054607;28;46586;-78
2022/11/09 08:12:56;;;;;;;;;4.75;3.00;;;;;14.19;71.64;100357.41;5054831;28;45878;-78
2022/11/09 08:15:22;;;;;;;;;4.50;3.25;;;;;14.18;71.26;100351.31;5054238;28;45601;-76
2022/11/09 08:17:49;;;;;;;;;2.25;2.00;;;;;14.19;71.16;100355.63;5054423;28;45589;-79
2022/11/09 08:20:15;;;;;;;;;3.75;3.00;;;;;14.24;71.17;100369.22;5054408;28;46712;-77
2022/11/09 08:22:42;;;;;;;;;1.50;1.50;;;;;14.22;71.52;100354.50;5054282;28;47178;-78
2022/11/09 08:25:08;;;;;;;;;3.50;2.00;;;;;14.26;71.14;100363.78;5054223;28;45684;-80
2022/11/09 08:27:38;;;;;;;;;2.00;2.00;;;;;14.26;71.56;100361.97;5054433;28;45640;-79
2022/11/09 08:30:06;;;;;;;;;3.00;1.75;;;;;14.27;71.25;100362.81;5054314;28;45490;-78
2022/11/09 08:32:31;;;;;;;;;2.75;1.75;;;;;14.22;71.42;100350.06;5054051;28;47078;-78
2022/11/09 08:34:57;;;;;;;;;3.25;2.25;;;;;14.30;71.29;100367.81;5054088;28;45617;-79
2022/11/09 08:37:23;;;;;;;;;3.00;2.50;;;;;14.30;71.39;100363.34;5054165;28;45716;-78
2022/11/09 08:39:50;;;;;;;;;3.50;2.00;;;;;14.26;71.24;100361.13;5019764;28;46302;-78
2022/11/09 08:42:16;;;;;;;;;1.75;1.75;;;;;14.34;71.31;100376.28;5054156;28;46512;-77
2022/11/09 08:44:42;;;;;;;;;3.50;2.00;;;;;14.34;71.39;100374.47;5055112;28;45641;-85
2022/11/09 08:47:07;;;;;;;;;2.00;2.00;;;;;14.35;71.19;100381.41;5058120;28;45672;-86
2022/11/09 08:49:33;;;;;;;;;2.00;1.75;;;;;14.36;71.38;100380.41;5056177;28;47157;-80
2022/11/09 08:52:00;;;;;;;;;2.75;1.75;;;;;14.39;71.27;100388.09;5021139;28;47449;-79
2022/11/09 08:54:25;;;;;;;;;2.50;2.00;;;;;14.37;71.11;100381.28;5054156;28;45824;-79
2022/11/09 08:56:54;;;;;;;;;3.00;2.00;;;;;14.36;71.21;100388.31;5054049;28;45526;-77
2022/11/09 08:59:20;;;;;;;;;4.00;3.00;;;;;14.45;71.28;100395.44;5053782;28;46599;-77
2022/11/09 09:01:45;;;;;;;;;7.50;5.00;;;;;14.47;70.91;100398.75;5054022;28;45652;-78
2022/11/09 09:04:11;;;;;;;;;8.00;6.00;;;;;14.46;70.90;100393.66;5053744;28;45787;-80
2022/11/09 09:06:36;;;;;;;;;6.00;5.00;;;;;14.44;71.09;100395.59;5053720;28;45593;-80
2022/11/09 09:12:23;;;;;;;;;3.00;3.00;;;;;14.47;70.85;100377.69;5053865;28;45746;-78
2022/11/09 09:14:49;;;;;;;;;2.75;2.75;;;;;14.68;70.51;100409.19;5057492;28;45673;-78
2022/11/09 09:17:14;;;;;;;;;5.75;3.00;;;;;14.70;70.71;100420.41;5057749;28;45710;-75
2022/11/09 09:19:40;;;;;;;;;2.00;2.00;;;;;14.73;70.66;100421.94;5056830;28;46750;-76
2022/11/09 09:22:05;;;;;;;;;3.75;1.00;;;;;14.74;70.31;100419.16;5057118;28;47103;-76
2022/11/09 09:27:52;;;;;;;;;4.50;1.00;;;;;14.70;70.47;100409.84;5057069;28;45615;-80
2022/11/09 09:30:18;;;;;;;;;2.25;2.00;;;;;14.82;70.25;100421.09;5057427;28;45541;-80
2022/11/09 09:32:43;;;;;;;;;3.00;0.00;;;;;14.83;69.96;100413.06;5057341;28;46165;-81
2022/11/09 09:35:09;;;;;;;;;1.50;0.75;;;;;14.92;69.92;100435.09;5057142;28;45601;-81
2022/11/09 09:37:34;;;;;;;;;1.50;1.00;;;;;14.94;69.67;100439.28;5056873;28;45920;-79
2022/11/09 09:40:00;;;;;;;;;1.75;1.00;;;;;14.95;69.75;100434.84;5056941;28;46489;-78
2022/11/09 09:42:35;;;;;;;;;3.00;1.00;;;;;15.00;69.37;100446.63;5057036;28;46041;-79
2022/11/09 09:45:31;;;;;;;;;2.00;1.00;;;;;15.06;69.15;100446.03;5056807;28;45647;-78
2022/11/09 09:48:16;;;;;;;;;1.50;1.00;;;;;15.03;69.28;100448.97;4994824;28;45781;-82
2022/11/09 09:50:55;;;;;;;;;1.00;1.00;;;;;15.09;69.32;100453.69;4995205;28;45562;-80
2022/11/09 09:53:31;;;;;;;;;1.50;1.00;;;;;15.14;69.05;100453.25;4994824;28;45808;-80
2022/11/09 09:56:08;;;;;;;;;4.00;0.50;;;;;15.16;68.68;100456.59;4994783;28;45705;-76
2022/11/09 09:58:41;;;;;;;;;0.75;0.25;;;;;15.19;68.80;100463.38;4994960;28;45815;-78
2022/11/09 10:01:16;;;;;;;;;1.50;1.00;;;;;15.21;68.63;100462.28;4994749;28;46392;-80
2022/11/09 10:03:42;;;;;;;;;2.50;1.00;;;;;15.16;68.54;100451.31;4996822;28;46254;-79
2022/11/09 10:06:25;;;;;;;;;1.00;0.25;;;;;15.26;68.23;100464.50;4996923;28;45544;-79
2022/11/09 10:09:05;;;;;;;;;2.50;1.00;;;;;15.25;67.86;100470.75;4995679;28;45864;-79
2022/11/09 10:11:33;;;;;;;;;2.00;1.00;;;;;15.26;67.99;100482.97;4994806;28;45999;-80
2022/11/09 10:14:36;;;;;;;;;2.00;1.25;;;;;15.28;67.92;100481.00;4994908;28;46373;-78
2022/11/09 10:17:32;;;;;;;;;2.00;0.25;;;;;15.29;67.47;100483.50;4994823;28;45684;-81
2022/11/09 10:20:31;;;;;;;;;2.00;1.00;;;;;15.31;67.62;100492.13;4995580;28;45610;-78
2022/11/09 10:26:27;;;;;;;;;3.00;1.00;;;;;15.30;67.43;100492.25;5057633;28;45604;-78
2022/11/09 10:28:59;;;;;;;;;1.00;1.00;;;;;15.34;67.33;100499.75;5057895;28;45604;-76
2022/11/09 10:31:31;;;;;;;;;2.75;1.25;;;;;15.38;67.07;100502.94;5056714;28;45591;-77
2022/11/09 10:34:01;;;;;;;;;1.00;0.75;;;;;15.41;66.67;100503.50;5056360;28;45560;-79
2022/11/09 10:36:41;;;;;;;;;1.00;1.00;;;;;15.37;66.70;100503.94;5056336;28;45640;-81
2022/11/09 10:42:28;;;;;;;;;1.00;1.00;;;;;15.47;66.47;100505.56;5054622;28;46541;-79
2022/11/09 10:44:54;;;;;;;;;2.00;1.50;;;;;15.50;66.40;100502.63;5037860;28;48681;-79
2022/11/09 10:47:21;;;;;;;;;2.00;1.75;;;;;15.55;66.36;100502.22;5056175;28;46342;-80
2022/11/09 10:50:24;;;;;;;;;2.00;1.00;;;;;15.59;65.90;100506.25;5037813;28;45630;-78
2022/11/09 10:52:49;;;;;;;;;1.50;1.00;;;;;15.63;65.76;100504.16;5055718;28;45593;-80
2022/11/09 10:55:22;;;;;;;;;2.00;1.00;;;;;15.60;65.74;100507.91;5056051;28;46259;-78
2022/11/09 10:57:58;;;;;;;;;2.00;1.00;;;;;15.64;65.42;100506.66;5055979;28;45962;-79
2022/11/09 11:00:24;;;;;;;;;2.00;1.00;;;;;15.67;65.12;100519.56;5055655;28;45680;-79
2022/11/09 11:02:51;;;;;;;;;0.00;0.00;;;;;15.73;65.40;100513.72;5056167;28;45630;-77
2022/11/09 11:05:16;;;;;;;;;1.50;1.50;;;;;15.76;65.34;100518.69;5055743;28;45544;-79
2022/11/09 11:07:43;;;;;;;;;3.75;3.00;;;;;15.79;65.27;100512.31;5055828;28;45603;-78
2022/11/09 11:13:30;;;;;;;;;3.25;1.00;;;;;15.88;64.80;100530.75;5055740;28;45472;-79
2022/11/09 11:15:57;;;;;;;;;1.25;0.75;;;;;15.89;64.41;100519.22;5055546;28;46303;-79
2022/11/09 11:18:25;;;;;;;;;0.50;0.50;;;;;16.01;64.08;100535.72;5056016;28;45922;-79
2022/11/09 11:21:17;;;;;;;;;1.00;0.75;;;;;16.02;63.69;100532.09;5055371;28;45642;-78
2022/11/09 11:23:43;;;;;;;;;1.00;1.00;;;;;16.06;63.34;100532.63;5055440;28;45708;-79
2022/11/09 11:26:31;;;;;;;;;0.00;0.00;;;;;16.05;62.90;100528.31;5054918;28;46647;-79
2022/11/09 11:29:05;;;;;;;;;0.50;0.00;;;;;16.05;62.68;100530.97;5054892;28;46733;-78
2022/11/09 11:31:31;;;;;;;;;1.00;1.00;;;;;16.05;61.99;100523.88;5055023;28;45688;-78
2022/11/09 11:33:57;;;;;;;;;1.00;1.00;;;;;16.06;62.29;100520.25;5055410;28;45598;-78
2022/11/09 11:36:48;;;;;;;;;2.25;0.00;;;;;16.15;62.20;100529.09;5055195;28;45691;-78
2022/11/09 11:39:28;;;;;;;;;1.00;0.00;;;;;16.22;62.18;100530.19;5055218;28;46153;-79
2022/11/09 11:42:05;;;;;;;;;4.00;1.00;;;;;16.26;61.63;100524.47;5054953;28;45764;-78
2022/11/09 11:44:54;;;;;;;;;1.00;0.75;;;;;16.31;62.10;100524.00;5055122;28;45474;-78
2022/11/09 11:47:40;;;;;;;;;2.00;1.25;;;;;16.36;61.24;100533.16;5055063;28;46417;-77
2022/11/09 11:50:15;;;;;;;;;1.50;1.00;;;;;16.38;61.29;100540.97;5055582;28;46452;-79
2022/11/09 11:53:03;;;;;;;;;2.00;1.25;;;;;16.39;61.07;100540.00;5055591;28;45573;-79
2022/11/09 11:55:48;;;;;;;;;2.00;1.00;;;;;16.43;60.96;100538.69;5055084;28;45694;-79
2022/11/09 11:58:13;;;;;;;;;1.75;0.25;;;;;16.46;60.79;100538.44;5055031;28;45743;-77
2022/11/09 12:00:55;;;;;;;;;0.50;0.50;;;;;16.47;60.64;100536.59;5054724;28;46133;-79
2022/11/09 12:03:48;;;;;;;;;0.75;0.00;;;;;16.50;60.62;100539.78;5055144;28;45616;-80
2022/11/09 12:06:23;;;;;;;;;1.25;0.00;;;;;16.58;60.22;100539.84;5054902;28;45668;-77
2022/11/09 12:12:16;;;;;;;;;1.00;1.00;;;;;16.64;59.93;100543.75;5054351;28;45555;-79
2022/11/09 12:14:44;;;;;;;;;1.75;0.00;;;;;16.65;60.05;100537.47;5054642;28;45634;-78
2022/11/09 12:17:09;;;;;;;;;2.00;1.00;;;;;16.65;60.10;100542.78;5054887;28;45468;-77
2022/11/09 12:19:39;;;;;;;;;2.00;1.00;;;;;16.67;59.84;100531.06;5054544;28;46672;-77
2022/11/09 12:22:21;;;;;;;;;2.00;1.50;;;;;16.71;59.85;100534.25;5054314;28;47015;-78
2022/11/09 12:28:17;;;;;;;;;1.50;0.75;;;;;16.76;59.74;100535.47;5054210;28;45577;-79
2022/11/09 12:31:18;;;;;;;;;3.75;1.50;;;;;16.75;59.91;100541.72;5054368;28;46448;-78
2022/11/09 12:33:50;;;;;;;;;2.00;0.75;;;;;16.78;59.43;100549.38;5054477;28;45853;-79
2022/11/09 12:36:24;;;;;;;;;1.00;1.00;;;;;16.76;59.44;100540.75;5053977;28;45746;-78
2022/11/09 12:38:57;;;;;;;;;3.00;1.75;;;;;16.78;59.72;100545.91;5054060;28;45804;-78
2022/11/09 12:41:29;;;;;;;;;2.00;1.25;;;;;16.67;59.40;100520.50;5054063;28;45697;-79
2022/11/09 12:44:17;;;;;;;;;1.00;1.00;;;;;16.82;59.32;100543.78;5036773;28;45992;-80
2022/11/09 12:46:50;;;;;;;;;2.00;1.00;;;;;16.85;59.38;100543.47;5054010;28;45685;-79
2022/11/09 12:49:39;;;;;;;;;2.00;1.75;;;;;16.85;59.34;100546.94;5053826;28;45566;-79
2022/11/09 12:52:10;;;;;;;;;1.00;1.00;;;;;16.87;59.16;100539.69;5054268;28;45606;-77
2022/11/09 12:54:40;;;;;;;;;2.00;1.00;;;;;16.86;59.07;100538.03;5053850;28;45708;-79
2022/11/09 12:57:12;;;;;;;;;1.00;0.00;;;;;16.85;59.12;100544.28;5053851;28;45527;-80
2022/11/09 12:59:50;;;;;;;;;2.25;1.25;;;;;16.88;59.09;100562.53;5036133;28;45888;-80
2022/11/09 13:02:51;;;;;;;;;1.25;1.00;;;;;16.89;58.79;100556.25;5053991;28;46241;-77
2022/11/09 13:05:32;;;;;;;;;1.00;1.00;;;;;16.89;58.15;100542.19;4991729;28;45933;-78
2022/11/09 13:08:07;;;;;;;;;1.00;0.00;;;;;16.92;57.83;100561.25;4991506;28;45739;-79
2022/11/09 13:10:35;;;;;;;;;1.75;1.00;;;;;16.93;58.07;100562.06;4992026;28;45574;-79
2022/11/09 13:13:10;;;;;;;;;2.00;1.00;;;;;16.94;58.16;100556.66;4991957;28;45727;-78
2022/11/09 13:15:37;;;;;;;;;1.00;1.00;;;;;16.90;58.33;100552.59;4991637;28;45891;-79
2022/11/09 13:18:21;;;;;;;;;0.75;0.00;;;;;16.93;57.91;100549.69;4975070;28;46274;-79
2022/11/09 13:20:47;;;;;;;;;1.75;0.00;;;;;16.86;58.18;100542.47;4991801;28;45723;-79
2022/11/09 13:23:29;;;;;;;;;0.00;0.00;;;;;16.99;57.65;100559.66;4991879;28;45767;-77
2022/11/09 13:25:56;;;;;;;;;0.00;0.00;;;;;16.98;57.43;100560.63;4991710;28;46028;-77
2022/11/09 13:28:31;;;;;;;;;1.75;1.00;;;;;16.98;56.99;100563.28;4991423;28;45633;-76
2022/11/09 13:31:03;;;;;;;;;1.00;1.00;;;;;16.89;56.97;100566.84;4991607;28;45678;-79
2022/11/09 13:33:32;;;;;;;;;0.00;0.00;;;;;16.84;56.83;100552.41;4974887;28;47987;-80
2022/11/09 13:36:13;;;;;;;;;1.00;0.00;;;;;16.93;56.39;100575.31;4991689;28;45704;-80
2022/11/09 13:38:39;;;;;;;;;2.00;0.00;;;;;16.94;56.55;100576.97;4991469;28;45675;-78
2022/11/09 13:41:33;;;;;;;;;0.75;0.00;;;;;16.94;56.59;100575.16;4996895;28;45628;-80
2022/11/09 13:44:22;;;;;;;;;0.00;0.00;;;;;16.96;56.82;100580.28;5053114;28;45571;-80
2022/11/09 13:46:48;;;;;;;;;0.00;0.00;;;;;16.95;56.26;100587.41;5036872;28;46436;-77
2022/11/09 13:49:35;;;;;;;;;0.00;0.00;;;;;16.93;55.95;100586.72;5053599;28;45475;-79
2022/11/09 13:52:01;;;;;;;;;1.00;0.00;;;;;16.88;56.35;100585.50;5053467;28;45592;-80
2022/11/09 13:57:49;;;;;;;;;0.00;0.00;;;;;16.83;56.50;100588.63;5053053;28;45636;-80